メインページ
METAR-TAF:

METAR-TAF

空港 :

Grande Prairie, アルバータ州, カナダ

緯度: 55-11N, 経度: 118-53W, 海抜: 666m

現時点の気象観測

当レポートは1時間8分前の23:00(UTC)に作成
西/南西の風 6kt
気温 11°C
湿度 54%
気圧 991 hPa
視程: 40.2km
高度7000ftの雲は散在している
高度15000ftの千切れ雲あり

METAR: CYQU 172300Z 25006KT 25SM SCT070 BKN150 11/02 A2927 RMK AC4AC2 SLP929 DENSITY ALT 3000FT

時間: 18:08 (00:08 UTC)

予報

当レポートは5時間29分前の18:39(UTC)に作成
予報は17日の 19時(UTC)から 18日の 07時(UTC)まで有効
南西の風 8kt
視程: 10km
高度20000ftの雲はほとんどない
18日の 0200時(UTC)から
変向風 3kt
視程: 10km
高度6000ftの雲は散在している
高度15000ftの千切れ雲あり

TAF: CYQU 171839Z 1719/1807 22008KT P6SM FEW200 FM180200 VRB03KT P6SM SCT060 BKN150 RMK NXT FCST BY 180100Z

4,000以上の空港の気象観測と天気予報(METAR報とTAF報)

利用可能な観測所は地図上に黄色い丸と赤い丸で示す。

丸の上にカーソルを重ねると観測所名を参照できる。

次にクリックすると気象観測と天気予報を参照できる。

マップの切り替え:黒色「×」印の緑ボタンをクリックして拡大、「-」印の緑ボタンをクリックして縮小、緑色の三角印をクリックして隣りの地図に切り替え


METAR-TAF: